Terminal Aerodrome Forecast
Issued by NWS

Home | Current Version | Previous Version | Graphics & Text | Print | Product List | Glossary On
Versions: 1 2 3 4 5 6 7 8 9 10 11 12 13 14 15
374
FTUS43 KBIS 201126
TAFDIK
TAF
KDIK 201126Z 2012/2112 23011KT P6SM SKC
     FM201600 23016G24KT P6SM FEW060 FEW250
     FM210000 19012KT P6SM FEW110 SCT150
     FM210300 16009KT P6SM FEW110 SCT140
     FM211100 23007KT P6SM BKN100 BKN120=

USA.gov is the U.S. government's official web portal to all federal, state and local government web resources and services.